Terminal Aerodrome Forecast
Issued by NWS

Home | Current Version | Previous Version | Text Only | Print | Product List | Glossary On
Versions: 1 2 3 4 5 6 7 8 9 10 11 12 13 14 15 16 17 18 19 20
000
FTUS42 KTBW 020500 RRA
TAFPIE
TAF
KPIE 020547Z 0206/0306 VRB04KT P6SM SCT035
     FM020900 VRB04KT 6SM BR SCT010 BKN025
      TEMPO 0210/0213 BKN010
     FM021400 08005KT P6SM SCT025
     FM022000 31007KT P6SM FEW040
     FM030100 VRB04KT P6SM FEW040=

USA.gov is the U.S. government's official web portal to all federal, state and local government web resources and services.